sensor_id;sensor_type;location;lat;lon;timestamp;pressure;altitude;pressure_sealevel;temperature;humidity
68179;BME280;69812;42.632;23.440;2024-02-14T00:00:12;94822.44;;;4.04;83.32
68179;BME280;69812;42.632;23.440;2024-02-14T00:02:44;94824.88;;;4.18;82.79
68179;BME280;69812;42.632;23.440;2024-02-14T00:05:12;94807.78;;;4.07;82.26
68179;BME280;69812;42.632;23.440;2024-02-14T00:07:38;94833.50;;;4.16;82.63
68179;BME280;69812;42.632;23.440;2024-02-14T00:10:06;94826.81;;;4.15;81.89
68179;BME280;69812;42.632;23.440;2024-02-14T00:12:36;94839.09;;;4.08;82.52
68179;BME280;69812;42.632;23.440;2024-02-14T00:15:05;94835.13;;;4.04;82.22
68179;BME280;69812;42.632;23.440;2024-02-14T00:17:34;94842.34;;;4.10;81.96
68179;BME280;69812;42.632;23.440;2024-02-14T00:20:01;94839.91;;;4.08;82.36
68179;BME280;69812;42.632;23.440;2024-02-14T00:22:28;94835.03;;;4.18;81.73
68179;BME280;69812;42.632;23.440;2024-02-14T00:24:54;94844.06;;;4.22;81.52
68179;BME280;69812;42.632;23.440;2024-02-14T00:41:37;94847.22;;;4.39;79.93
68179;BME280;69812;42.632;23.440;2024-02-14T00:44:02;94834.72;;;4.36;80.49
68179;BME280;69812;42.632;23.440;2024-02-14T00:46:28;94844.88;;;4.23;81.09
68179;BME280;69812;42.632;23.440;2024-02-14T00:48:54;94850.09;;;4.21;81.12
68179;BME280;69812;42.632;23.440;2024-02-14T00:51:20;94852.22;;;4.27;81.04
68179;BME280;69812;42.632;23.440;2024-02-14T00:53:46;94849.69;;;4.15;81.00
68179;BME280;69812;42.632;23.440;2024-02-14T00:56:11;94837.28;;;4.10;81.02
68179;BME280;69812;42.632;23.440;2024-02-14T00:58:37;94853.03;;;4.28;81.08
68179;BME280;69812;42.632;23.440;2024-02-14T01:01:02;94851.59;;;4.24;81.55
68179;BME280;69812;42.632;23.440;2024-02-14T01:03:27;94850.69;;;4.12;80.83
68179;BME280;69812;42.632;23.440;2024-02-14T01:05:53;94843.34;;;4.07;81.64
68179;BME280;69812;42.632;23.440;2024-02-14T01:08:20;94843.16;;;4.10;81.61
68179;BME280;69812;42.632;23.440;2024-02-14T01:10:46;94831.78;;;4.29;80.63
68179;BME280;69812;42.632;23.440;2024-02-14T01:13:14;94837.78;;;4.15;80.37
68179;BME280;69812;42.632;23.440;2024-02-14T01:15:40;94855.25;;;4.20;81.66
68179;BME280;69812;42.632;23.440;2024-02-14T01:18:08;94853.91;;;4.14;81.37
68179;BME280;69812;42.632;23.440;2024-02-14T01:20:33;94840.63;;;4.10;80.83
68179;BME280;69812;42.632;23.440;2024-02-14T01:22:58;94852.09;;;4.16;81.31
68179;BME280;69812;42.632;23.440;2024-02-14T01:25:25;94848.44;;;4.20;80.78
68179;BME280;69812;42.632;23.440;2024-02-14T01:27:53;94832.91;;;4.12;80.64
68179;BME280;69812;42.632;23.440;2024-02-14T01:30:21;94846.72;;;4.21;80.81
68179;BME280;69812;42.632;23.440;2024-02-14T01:32:46;94842.16;;;4.13;81.20
68179;BME280;69812;42.632;23.440;2024-02-14T01:35:11;94844.19;;;4.08;81.33
68179;BME280;69812;42.632;23.440;2024-02-14T01:37:38;94837.16;;;4.11;80.99
68179;BME280;69812;42.632;23.440;2024-02-14T01:40:03;94842.34;;;4.23;80.71
68179;BME280;69812;42.632;23.440;2024-02-14T01:42:29;94848.97;;;4.25;80.65
68179;BME280;69812;42.632;23.440;2024-02-14T01:44:54;94845.91;;;4.20;80.30
68179;BME280;69812;42.632;23.440;2024-02-14T01:47:20;94839.59;;;4.00;81.09
68179;BME280;69812;42.632;23.440;2024-02-14T01:49:50;94852.72;;;4.20;80.47
68179;BME280;69812;42.632;23.440;2024-02-14T01:52:16;94849.38;;;4.19;81.00
68179;BME280;69812;42.632;23.440;2024-02-14T01:54:41;94845.81;;;4.09;80.28
68179;BME280;69812;42.632;23.440;2024-02-14T01:57:08;94835.25;;;4.15;80.47
68179;BME280;69812;42.632;23.440;2024-02-14T01:59:38;94851.28;;;4.16;80.72
68179;BME280;69812;42.632;23.440;2024-02-14T02:02:04;94844.19;;;4.21;80.21
68179;BME280;69812;42.632;23.440;2024-02-14T02:04:32;94851.50;;;4.25;79.71
68179;BME280;69812;42.632;23.440;2024-02-14T02:07:01;94840.53;;;4.12;80.24
68179;BME280;69812;42.632;23.440;2024-02-14T02:09:26;94851.69;;;4.22;80.15
68179;BME280;69812;42.632;23.440;2024-02-14T02:11:52;94855.16;;;4.21;79.56
68179;BME280;69812;42.632;23.440;2024-02-14T02:14:21;94847.22;;;4.13;79.50
68179;BME280;69812;42.632;23.440;2024-02-14T02:16:47;94850.47;;;4.15;79.71
68179;BME280;69812;42.632;23.440;2024-02-14T02:19:13;94860.22;;;4.08;80.09
68179;BME280;69812;42.632;23.440;2024-02-14T02:21:39;94850.47;;;4.15;80.08
68179;BME280;69812;42.632;23.440;2024-02-14T02:24:04;94852.00;;;4.05;79.39
68179;BME280;69812;42.632;23.440;2024-02-14T02:26:32;94865.72;;;4.15;79.96
68179;BME280;69812;42.632;23.440;2024-02-14T02:28:57;94865.50;;;4.18;79.25
68179;BME280;69812;42.632;23.440;2024-02-14T02:31:32;94865.94;;;4.12;79.61
68179;BME280;69812;42.632;23.440;2024-02-14T02:33:59;94870.00;;;4.15;79.83
68179;BME280;69812;42.632;23.440;2024-02-14T02:36:25;94852.91;;;4.04;78.95
68179;BME280;69812;42.632;23.440;2024-02-14T02:38:55;94852.00;;;4.05;79.25
68179;BME280;69812;42.632;23.440;2024-02-14T02:41:20;94864.69;;;4.05;79.05
68179;BME280;69812;42.632;23.440;2024-02-14T02:43:47;94872.72;;;4.11;79.74
68179;BME280;69812;42.632;23.440;2024-02-14T02:46:15;94870.28;;;3.97;79.44
68179;BME280;69812;42.632;23.440;2024-02-14T02:48:41;94881.44;;;4.07;78.92
68179;BME280;69812;42.632;23.440;2024-02-14T02:51:06;94875.34;;;3.97;79.38
68179;BME280;69812;42.632;23.440;2024-02-14T02:53:34;94862.84;;;3.94;78.59
68179;BME280;69812;42.632;23.440;2024-02-14T02:56:00;94883.56;;;4.01;79.32
68179;BME280;69812;42.632;23.440;2024-02-14T02:58:28;94862.66;;;3.97;78.92
68179;BME280;69812;42.632;23.440;2024-02-14T03:00:53;94888.78;;;3.99;79.14
68179;BME280;69812;42.632;23.440;2024-02-14T03:03:21;94896.59;;;4.09;78.98
68179;BME280;69812;42.632;23.440;2024-02-14T03:05:47;94898.63;;;4.04;79.20
68179;BME280;69812;42.632;23.440;2024-02-14T03:08:12;94885.72;;;4.07;78.45
68179;BME280;69812;42.632;23.440;2024-02-14T03:10:40;94905.13;;;4.08;78.47
68179;BME280;69812;42.632;23.440;2024-02-14T03:13:06;94896.69;;;4.07;78.49
68179;BME280;69812;42.632;23.440;2024-02-14T03:15:34;94913.16;;;4.15;78.27
68179;BME280;69812;42.632;23.440;2024-02-14T03:18:00;94905.72;;;4.11;78.58
68179;BME280;69812;42.632;23.440;2024-02-14T03:20:26;94910.41;;;4.05;78.54
68179;BME280;69812;42.632;23.440;2024-02-14T03:22:54;94900.53;;;4.00;78.98
68179;BME280;69812;42.632;23.440;2024-02-14T03:25:20;94915.47;;;4.05;78.12
68179;BME280;69812;42.632;23.440;2024-02-14T03:27:46;94923.50;;;3.99;78.51
68179;BME280;69812;42.632;23.440;2024-02-14T03:30:21;94905.72;;;3.99;78.17
68179;BME280;69812;42.632;23.440;2024-02-14T03:32:47;94914.97;;;4.00;77.96
68179;BME280;69812;42.632;23.440;2024-02-14T03:35:22;94934.69;;;4.09;78.30
68179;BME280;69812;42.632;23.440;2024-02-14T03:37:49;94927.69;;;4.13;77.83
68179;BME280;69812;42.632;23.440;2024-02-14T03:40:14;94936.59;;;4.05;77.94
68179;BME280;69812;42.632;23.440;2024-02-14T03:42:40;94937.91;;;3.98;78.04
68179;BME280;69812;42.632;23.440;2024-02-14T03:45:09;94922.97;;;3.94;78.14
68179;BME280;69812;42.632;23.440;2024-02-14T03:47:35;94951.25;;;4.02;77.84
68179;BME280;69812;42.632;23.440;2024-02-14T03:50:02;94952.25;;;3.99;78.41
68179;BME280;69812;42.632;23.440;2024-02-14T03:52:29;94942.47;;;3.93;78.13
68179;BME280;69812;42.632;23.440;2024-02-14T03:54:57;94950.63;;;3.98;78.10
68179;BME280;69812;42.632;23.440;2024-02-14T03:57:23;94953.25;;;3.97;77.78
68179;BME280;69812;42.632;23.440;2024-02-14T03:59:50;94947.44;;;3.95;78.23
68179;BME280;69812;42.632;23.440;2024-02-14T04:02:18;94951.00;;;3.92;77.79
68179;BME280;69812;42.632;23.440;2024-02-14T04:04:46;94946.94;;;3.89;77.80
68179;BME280;69812;42.632;23.440;2024-02-14T04:07:12;94943.50;;;3.90;77.75
68179;BME280;69812;42.632;23.440;2024-02-14T04:09:37;94956.41;;;4.00;76.94
68179;BME280;69812;42.632;23.440;2024-02-14T04:12:03;94942.47;;;3.93;77.01
68179;BME280;69812;42.632;23.440;2024-02-14T04:14:29;94937.06;;;3.85;77.26
68179;BME280;69812;42.632;23.440;2024-02-14T04:16:57;94955.06;;;3.95;76.58
68179;BME280;69812;42.632;23.440;2024-02-14T04:19:22;94967.25;;;3.89;76.92
68179;BME280;69812;42.632;23.440;2024-02-14T04:21:48;94963.19;;;3.87;77.10
68179;BME280;69812;42.632;23.440;2024-02-14T04:24:15;94962.47;;;3.85;77.10
68179;BME280;69812;42.632;23.440;2024-02-14T04:26:41;94951.53;;;3.70;77.63
68179;BME280;69812;42.632;23.440;2024-02-14T04:29:07;94963.38;;;3.84;77.75
68179;BME280;69812;42.632;23.440;2024-02-14T04:31:36;94964.28;;;3.83;76.75
68179;BME280;69812;42.632;23.440;2024-02-14T04:34:04;94976.53;;;3.76;77.12
68179;BME280;69812;42.632;23.440;2024-02-14T04:36:32;94955.59;;;3.73;77.66
68179;BME280;69812;42.632;23.440;2024-02-14T04:38:58;94970.75;;;3.74;77.62
68179;BME280;69812;42.632;23.440;2024-02-14T04:41:23;94985.41;;;3.83;77.58
68179;BME280;69812;42.632;23.440;2024-02-14T04:43:49;94983.06;;;3.80;77.74
68179;BME280;69812;42.632;23.440;2024-02-14T04:46:19;94973.75;;;3.66;77.76
68179;BME280;69812;42.632;23.440;2024-02-14T04:48:47;94987.22;;;3.81;77.76
68179;BME280;69812;42.632;23.440;2024-02-14T04:51:15;94992.50;;;3.78;77.54
68179;BME280;69812;42.632;23.440;2024-02-14T04:53:40;94995.66;;;3.82;77.00
68179;BME280;69812;42.632;23.440;2024-02-14T04:56:05;94987.88;;;3.70;77.77
68179;BME280;69812;42.632;23.440;2024-02-14T04:58:33;95005.56;;;3.72;77.77
68179;BME280;69812;42.632;23.440;2024-02-14T05:01:01;95014.34;;;3.81;78.13
68179;BME280;69812;42.632;23.440;2024-02-14T05:03:27;94999.63;;;3.86;77.66
68179;BME280;69812;42.632;23.440;2024-02-14T05:05:52;95004.81;;;3.84;77.19
68179;BME280;69812;42.632;23.440;2024-02-14T05:08:18;94998.81;;;3.85;77.78
68179;BME280;69812;42.632;23.440;2024-02-14T05:10:43;95003.75;;;3.74;77.70
68179;BME280;69812;42.632;23.440;2024-02-14T05:13:09;95022.59;;;3.70;78.19
68179;BME280;69812;42.632;23.440;2024-02-14T05:15:34;95030.13;;;3.72;78.38
68179;BME280;69812;42.632;23.440;2024-02-14T05:18:00;95028.03;;;3.78;78.07
68179;BME280;69812;42.632;23.440;2024-02-14T05:20:26;95038.91;;;3.80;78.25
68179;BME280;69812;42.632;23.440;2024-02-14T05:22:51;95040.66;;;3.80;77.71
68179;BME280;69812;42.632;23.440;2024-02-14T05:25:19;95050.31;;;3.87;78.00
68179;BME280;69812;42.632;23.440;2024-02-14T05:27:44;95040.72;;;3.78;78.03
68179;BME280;69812;42.632;23.440;2024-02-14T05:30:12;95061.22;;;3.75;78.13
68179;BME280;69812;42.632;23.440;2024-02-14T05:32:38;95058.00;;;3.86;78.17
68179;BME280;69812;42.632;23.440;2024-02-14T05:35:05;95058.41;;;3.80;78.24
68179;BME280;69812;42.632;23.440;2024-02-14T05:37:31;95067.47;;;3.84;78.12
68179;BME280;69812;42.632;23.440;2024-02-14T05:39:57;95058.06;;;3.72;78.28
68179;BME280;69812;42.632;23.440;2024-02-14T05:42:25;95066.75;;;3.82;78.89
68179;BME280;69812;42.632;23.440;2024-02-14T05:44:52;95079.03;;;3.88;77.97
68179;BME280;69812;42.632;23.440;2024-02-14T05:47:18;95060.41;;;3.75;78.45
68179;BME280;69812;42.632;23.440;2024-02-14T05:49:44;95076.91;;;3.67;79.07
68179;BME280;69812;42.632;23.440;2024-02-14T05:52:09;95072.63;;;3.82;78.42
68179;BME280;69812;42.632;23.440;2024-02-14T05:54:35;95082.59;;;3.85;77.68
68179;BME280;69812;42.632;23.440;2024-02-14T05:57:03;95088.03;;;3.79;77.83
68179;BME280;69812;42.632;23.440;2024-02-14T05:59:30;95089.59;;;3.82;78.04
68179;BME280;69812;42.632;23.440;2024-02-14T06:01:56;95091.88;;;3.72;78.17
68179;BME280;69812;42.632;23.440;2024-02-14T06:04:21;95103.84;;;3.70;78.49
68179;BME280;69812;42.632;23.440;2024-02-14T06:06:47;95086.44;;;3.78;78.03
68179;BME280;69812;42.632;23.440;2024-02-14T06:09:12;95090.84;;;3.75;77.90
68179;BME280;69812;42.632;23.440;2024-02-14T06:11:38;95093.88;;;3.67;76.93
68179;BME280;69812;42.632;23.440;2024-02-14T06:14:08;95113.47;;;3.65;77.54
68179;BME280;69812;42.632;23.440;2024-02-14T06:16:36;95122.53;;;3.69;77.55
68179;BME280;69812;42.632;23.440;2024-02-14T06:19:01;95096.78;;;3.61;77.49
68179;BME280;69812;42.632;23.440;2024-02-14T06:21:30;95116.25;;;3.75;76.71
68179;BME280;69812;42.632;23.440;2024-02-14T06:23:57;95115.28;;;3.63;76.86
68179;BME280;69812;42.632;23.440;2024-02-14T06:26:25;95115.16;;;3.79;76.33
68179;BME280;69812;42.632;23.440;2024-02-14T06:28:59;95125.59;;;3.74;77.23
68179;BME280;69812;42.632;23.440;2024-02-14T06:31:27;95118.50;;;3.79;76.78
68179;BME280;69812;42.632;23.440;2024-02-14T06:33:53;95132.47;;;3.86;75.73
68179;BME280;69812;42.632;23.440;2024-02-14T06:36:18;95132.47;;;3.72;75.80
68179;BME280;69812;42.632;23.440;2024-02-14T06:38:43;95133.94;;;3.76;76.15
68179;BME280;69812;42.632;23.440;2024-02-14T06:41:11;95134.66;;;3.78;75.53
68179;BME280;69812;42.632;23.440;2024-02-14T06:43:42;95098.31;;;3.63;75.39
68179;BME280;69812;42.632;23.440;2024-02-14T06:46:07;95140.63;;;3.91;75.22
68179;BME280;69812;42.632;23.440;2024-02-14T06:48:33;95133.19;;;3.74;75.37
68179;BME280;69812;42.632;23.440;2024-02-14T06:50:59;95146.50;;;3.92;75.04
68179;BME280;69812;42.632;23.440;2024-02-14T06:53:24;95148.44;;;3.88;74.23
68179;BME280;69812;42.632;23.440;2024-02-14T06:55:50;95147.16;;;3.81;74.35
68179;BME280;69812;42.632;23.440;2024-02-14T06:58:15;95142.44;;;3.75;74.45
68179;BME280;69812;42.632;23.440;2024-02-14T07:00:41;95132.69;;;3.69;74.51
68179;BME280;69812;42.632;23.440;2024-02-14T07:03:06;95161.31;;;3.85;75.12
68179;BME280;69812;42.632;23.440;2024-02-14T07:05:32;95159.41;;;3.89;73.98
68179;BME280;69812;42.632;23.440;2024-02-14T07:07:57;95162.47;;;3.94;74.58
68179;BME280;69812;42.632;23.440;2024-02-14T07:10:22;95174.19;;;3.82;73.72
68179;BME280;69812;42.632;23.440;2024-02-14T07:12:48;95165.28;;;3.75;74.31
68179;BME280;69812;42.632;23.440;2024-02-14T07:15:13;95172.47;;;3.83;74.26
68179;BME280;69812;42.632;23.440;2024-02-14T07:17:39;95157.94;;;3.70;74.39
68179;BME280;69812;42.632;23.440;2024-02-14T07:20:05;95176.81;;;3.81;73.40
68179;BME280;69812;42.632;23.440;2024-02-14T07:22:33;95168.09;;;3.85;73.93
68179;BME280;69812;42.632;23.440;2024-02-14T07:25:01;95168.38;;;3.80;73.41
68179;BME280;69812;42.632;23.440;2024-02-14T07:27:27;95175.38;;;3.91;73.96
68179;BME280;69812;42.632;23.440;2024-02-14T07:29:55;95169.09;;;3.97;72.62
68179;BME280;69812;42.632;23.440;2024-02-14T07:32:20;95174.00;;;4.00;72.96
68179;BME280;69812;42.632;23.440;2024-02-14T07:34:46;95179.59;;;4.19;71.89
68179;BME280;69812;42.632;23.440;2024-02-14T07:37:14;95174.16;;;4.11;71.26
68179;BME280;69812;42.632;23.440;2024-02-14T07:39:43;95190.66;;;4.18;71.83
68179;BME280;69812;42.632;23.440;2024-02-14T07:42:11;95195.44;;;4.23;71.39
68179;BME280;69812;42.632;23.440;2024-02-14T07:44:37;95190.75;;;4.17;71.70
68179;BME280;69812;42.632;23.440;2024-02-14T07:47:02;95197.72;;;4.27;70.90
68179;BME280;69812;42.632;23.440;2024-02-14T07:49:28;95197.38;;;4.19;71.08
68179;BME280;69812;42.632;23.440;2024-02-14T07:51:56;95196.28;;;4.09;70.50
68179;BME280;69812;42.632;23.440;2024-02-14T07:54:21;95199.63;;;4.09;71.29
68179;BME280;69812;42.632;23.440;2024-02-14T07:56:47;95204.28;;;4.17;71.06
68179;BME280;69812;42.632;23.440;2024-02-14T07:59:14;95190.47;;;4.21;70.69
68179;BME280;69812;42.632;23.440;2024-02-14T08:01:40;95208.88;;;4.25;70.58
68179;BME280;69812;42.632;23.440;2024-02-14T08:04:05;95215.59;;;4.11;70.73
68179;BME280;69812;42.632;23.440;2024-02-14T08:06:30;95195.94;;;4.01;71.42
68179;BME280;69812;42.632;23.440;2024-02-14T08:08:56;95212.34;;;4.09;70.63
68179;BME280;69812;42.632;23.440;2024-02-14T08:11:27;95210.25;;;4.16;71.50
68179;BME280;69812;42.632;23.440;2024-02-14T08:13:52;95216.88;;;4.19;70.88
68179;BME280;69812;42.632;23.440;2024-02-14T08:16:18;95217.16;;;4.00;71.29
68179;BME280;69812;42.632;23.440;2024-02-14T08:18:43;95220.88;;;3.94;71.66
68179;BME280;69812;42.632;23.440;2024-02-14T08:21:16;95218.50;;;4.05;72.35
68179;BME280;69812;42.632;23.440;2024-02-14T08:23:41;95230.88;;;3.97;72.01
68179;BME280;69812;42.632;23.440;2024-02-14T08:26:08;95224.59;;;3.88;71.42
68179;BME280;69812;42.632;23.440;2024-02-14T08:28:38;95216.63;;;3.80;71.44
68179;BME280;69812;42.632;23.440;2024-02-14T08:31:09;95210.34;;;3.86;72.37
68179;BME280;69812;42.632;23.440;2024-02-14T08:33:38;95234.66;;;3.76;71.85
68179;BME280;69812;42.632;23.440;2024-02-14T08:36:05;95225.28;;;3.62;71.28
68179;BME280;69812;42.632;23.440;2024-02-14T08:38:33;95236.38;;;3.75;71.95
68179;BME280;69812;42.632;23.440;2024-02-14T08:41:00;95234.56;;;3.77;71.00
68179;BME280;69812;42.632;23.440;2024-02-14T08:43:26;95226.69;;;3.82;71.86
68179;BME280;69812;42.632;23.440;2024-02-14T08:45:53;95240.00;;;3.85;71.45
68179;BME280;69812;42.632;23.440;2024-02-14T08:48:22;95236.19;;;3.78;71.87
68179;BME280;69812;42.632;23.440;2024-02-14T08:50:50;95206.91;;;3.58;71.02
68179;BME280;69812;42.632;23.440;2024-02-14T08:53:15;95232.75;;;3.65;71.78
68179;BME280;69812;42.632;23.440;2024-02-14T08:55:43;95250.81;;;3.89;70.99
68179;BME280;69812;42.632;23.440;2024-02-14T08:58:09;95254.63;;;3.96;70.74
68179;BME280;69812;42.632;23.440;2024-02-14T09:00:35;95252.44;;;4.04;70.72
68179;BME280;69812;42.632;23.440;2024-02-14T09:03:01;95256.09;;;4.15;69.61
68179;BME280;69812;42.632;23.440;2024-02-14T09:05:27;95238.28;;;3.86;69.96
68179;BME280;69812;42.632;23.440;2024-02-14T09:07:53;95254.78;;;4.07;70.21
68179;BME280;69812;42.632;23.440;2024-02-14T09:10:19;95235.56;;;3.89;69.59
68179;BME280;69812;42.632;23.440;2024-02-14T10:32:33;95278.75;;;4.18;71.46
68179;BME280;69812;42.632;23.440;2024-02-14T10:35:00;95267.41;;;4.09;70.05
68179;BME280;69812;42.632;23.440;2024-02-14T11:14:44;95270.81;;;4.65;67.04
68179;BME280;69812;42.632;23.440;2024-02-14T11:17:12;95271.53;;;4.67;67.29
68179;BME280;69812;42.632;23.440;2024-02-14T11:19:38;95279.06;;;4.69;66.42
68179;BME280;69812;42.632;23.440;2024-02-14T11:22:17;95269.13;;;4.51;66.43
68179;BME280;69812;42.632;23.440;2024-02-14T11:24:45;95270.22;;;4.33;66.31
68179;BME280;69812;42.632;23.440;2024-02-14T11:27:11;95257.97;;;4.25;67.30
68179;BME280;69812;42.632;23.440;2024-02-14T11:29:39;95259.59;;;4.26;67.51
68179;BME280;69812;42.632;23.440;2024-02-14T11:32:06;95264.25;;;4.34;66.79
68179;BME280;69812;42.632;23.440;2024-02-14T11:34:35;95259.16;;;4.20;66.97
68179;BME280;69812;42.632;23.440;2024-02-14T11:37:03;95270.03;;;4.07;66.91
68179;BME280;69812;42.632;23.440;2024-02-14T11:39:30;95270.41;;;4.16;66.73
68179;BME280;69812;42.632;23.440;2024-02-14T11:41:57;95265.97;;;4.05;67.46
68179;BME280;69812;42.632;23.440;2024-02-14T11:44:23;95263.88;;;4.11;67.66
68179;BME280;69812;42.632;23.440;2024-02-14T11:46:51;95268.16;;;4.25;67.50
68179;BME280;69812;42.632;23.440;2024-02-14T11:49:19;95270.28;;;4.46;66.45
68179;BME280;69812;42.632;23.440;2024-02-14T11:51:46;95273.19;;;4.40;66.40
68179;BME280;69812;42.632;23.440;2024-02-14T11:54:11;95260.84;;;4.33;67.05
68179;BME280;69812;42.632;23.440;2024-02-14T11:56:38;95268.94;;;4.11;66.80
68179;BME280;69812;42.632;23.440;2024-02-14T11:59:06;95265.06;;;4.06;66.94
68179;BME280;69812;42.632;23.440;2024-02-14T12:01:37;95269.94;;;4.09;67.14
68179;BME280;69812;42.632;23.440;2024-02-14T12:04:05;95263.78;;;3.99;67.83
68179;BME280;69812;42.632;23.440;2024-02-14T12:06:39;95265.78;;;4.22;67.45
68179;BME280;69812;42.632;23.440;2024-02-14T12:09:06;95261.50;;;4.23;67.62
68179;BME280;69812;42.632;23.440;2024-02-14T12:11:35;95259.03;;;4.36;67.50
68179;BME280;69812;42.632;23.440;2024-02-14T12:14:08;95248.16;;;4.48;66.06
68179;BME280;69812;42.632;23.440;2024-02-14T12:16:37;95256.88;;;4.44;66.45
68179;BME280;69812;42.632;23.440;2024-02-14T12:19:15;95244.88;;;4.46;66.28
68179;BME280;69812;42.632;23.440;2024-02-14T12:21:42;95250.09;;;4.30;65.57
68179;BME280;69812;42.632;23.440;2024-02-14T12:24:11;95260.66;;;4.51;65.50
68179;BME280;69812;42.632;23.440;2024-02-14T12:26:38;95253.03;;;4.51;65.43
68179;BME280;69812;42.632;23.440;2024-02-14T12:29:04;95251.22;;;4.53;65.17
68179;BME280;69812;42.632;23.440;2024-02-14T12:31:30;95245.97;;;4.56;65.12
68179;BME280;69812;42.632;23.440;2024-02-14T12:33:57;95254.75;;;4.65;65.25
68179;BME280;69812;42.632;23.440;2024-02-14T12:36:25;95258.59;;;4.58;65.29
68179;BME280;69812;42.632;23.440;2024-02-14T12:38:54;95258.59;;;4.58;65.43
68179;BME280;69812;42.632;23.440;2024-02-14T12:41:19;95254.09;;;4.61;65.76
68179;BME280;69812;42.632;23.440;2024-02-14T12:43:45;95244.81;;;4.74;65.81
68179;BME280;69812;42.632;23.440;2024-02-14T12:46:10;95254.25;;;4.72;66.00
68179;BME280;69812;42.632;23.440;2024-02-14T12:48:36;95261.13;;;4.85;65.50
68179;BME280;69812;42.632;23.440;2024-02-14T12:51:01;95255.91;;;5.01;65.00
68179;BME280;69812;42.632;23.440;2024-02-14T12:53:29;95265.94;;;5.17;64.73
68179;BME280;69812;42.632;23.440;2024-02-14T12:55:54;95265.75;;;4.92;63.45
68179;BME280;69812;42.632;23.440;2024-02-14T12:58:20;95256.53;;;5.04;64.43
68179;BME280;69812;42.632;23.440;2024-02-14T13:00:45;95260.00;;;5.03;64.44
68179;BME280;69812;42.632;23.440;2024-02-14T13:03:11;95259.75;;;4.93;64.82
68179;BME280;69812;42.632;23.440;2024-02-14T13:05:37;95261.72;;;5.03;65.18
68179;BME280;69812;42.632;23.440;2024-02-14T13:08:03;95272.00;;;5.01;64.62
68179;BME280;69812;42.632;23.440;2024-02-14T13:10:28;95261.41;;;5.07;64.70
68179;BME280;69812;42.632;23.440;2024-02-14T13:12:56;95272.19;;;4.98;64.22
68179;BME280;69812;42.632;23.440;2024-02-14T13:15:22;95273.97;;;5.10;63.79
68179;BME280;69812;42.632;23.440;2024-02-14T13:17:49;95268.78;;;5.12;64.46
68179;BME280;69812;42.632;23.440;2024-02-14T13:20:15;95269.78;;;5.09;63.75
68179;BME280;69812;42.632;23.440;2024-02-14T13:22:41;95263.88;;;5.09;63.78
68179;BME280;69812;42.632;23.440;2024-02-14T13:25:09;95271.56;;;4.94;63.67
68179;BME280;69812;42.632;23.440;2024-02-14T13:27:35;95270.56;;;4.97;63.94
68179;BME280;69812;42.632;23.440;2024-02-14T13:30:01;95271.34;;;5.12;63.79
68179;BME280;69812;42.632;23.440;2024-02-14T13:32:27;95273.03;;;5.11;62.98
68179;BME280;69812;42.632;23.440;2024-02-14T13:34:52;95275.19;;;5.18;62.72
68179;BME280;69812;42.632;23.440;2024-02-14T13:37:18;95267.63;;;5.03;63.49
68179;BME280;69812;42.632;23.440;2024-02-14T13:39:46;95270.34;;;5.00;63.28
68179;BME280;69812;42.632;23.440;2024-02-14T13:42:11;95271.47;;;4.96;63.59
68179;BME280;69812;42.632;23.440;2024-02-14T13:44:39;95271.72;;;5.06;64.00
68179;BME280;69812;42.632;23.440;2024-02-14T13:47:04;95275.50;;;5.13;62.59
68179;BME280;69812;42.632;23.440;2024-02-14T13:49:32;95274.91;;;5.22;62.44
68179;BME280;69812;42.632;23.440;2024-02-14T13:51:58;95279.13;;;5.09;62.27
68179;BME280;69812;42.632;23.440;2024-02-14T13:54:23;95278.47;;;4.92;63.49
68179;BME280;69812;42.632;23.440;2024-02-14T13:56:49;95279.06;;;5.10;62.80
68179;BME280;69812;42.632;23.440;2024-02-14T13:59:15;95270.19;;;5.16;62.17
68179;BME280;69812;42.632;23.440;2024-02-14T14:01:41;95281.59;;;5.10;62.78
68179;BME280;69812;42.632;23.440;2024-02-14T14:04:07;95284.56;;;5.17;63.05
68179;BME280;69812;42.632;23.440;2024-02-14T14:06:33;95275.53;;;5.26;62.04
68179;BME280;69812;42.632;23.440;2024-02-14T14:08:59;95285.88;;;5.10;61.40
68179;BME280;69812;42.632;23.440;2024-02-14T14:11:27;95277.53;;;5.08;62.07
68179;BME280;69812;42.632;23.440;2024-02-14T14:13:52;95280.97;;;5.07;61.28
68179;BME280;69812;42.632;23.440;2024-02-14T14:16:18;95280.91;;;4.94;62.14
68179;BME280;69812;42.632;23.440;2024-02-14T14:18:48;95291.50;;;5.01;61.95
68179;BME280;69812;42.632;23.440;2024-02-14T14:21:13;95290.09;;;4.97;62.31
68179;BME280;69812;42.632;23.440;2024-02-14T14:23:38;95283.16;;;4.99;61.59
68179;BME280;69812;42.632;23.440;2024-02-14T14:26:04;95285.16;;;5.08;61.57
68179;BME280;69812;42.632;23.440;2024-02-14T14:28:31;95288.25;;;5.26;60.96
68179;BME280;69812;42.632;23.440;2024-02-14T14:30:57;95284.38;;;5.20;61.33
68179;BME280;69812;42.632;23.440;2024-02-14T14:33:24;95293.22;;;5.14;62.25
68179;BME280;69812;42.632;23.440;2024-02-14T14:35:50;95286.06;;;5.07;62.40
68179;BME280;69812;42.632;23.440;2024-02-14T14:38:17;95298.19;;;5.16;62.75
68179;BME280;69812;42.632;23.440;2024-02-14T14:40:43;95292.00;;;5.20;62.29
68179;BME280;69812;42.632;23.440;2024-02-14T14:43:11;95288.19;;;5.27;61.58
68179;BME280;69812;42.632;23.440;2024-02-14T14:45:37;95305.44;;;5.22;62.74
68179;BME280;69812;42.632;23.440;2024-02-14T14:48:04;95302.72;;;5.25;61.78
68179;BME280;69812;42.632;23.440;2024-02-14T14:50:32;95296.28;;;5.20;61.47
68179;BME280;69812;42.632;23.440;2024-02-14T14:52:58;95303.81;;;5.21;61.81
68179;BME280;69812;42.632;23.440;2024-02-14T14:55:49;95305.13;;;5.14;62.24
68179;BME280;69812;42.632;23.440;2024-02-14T14:58:14;95297.38;;;5.15;61.58
68179;BME280;69812;42.632;23.440;2024-02-14T15:00:40;95311.91;;;5.13;62.18
68179;BME280;69812;42.632;23.440;2024-02-14T15:03:05;95302.97;;;5.08;63.56
68179;BME280;69812;42.632;23.440;2024-02-14T15:05:30;95313.38;;;5.18;62.50
68179;BME280;69812;42.632;23.440;2024-02-14T15:07:56;95308.22;;;5.05;61.60